Time;durP1;ratioP1;P1;durP2;ratioP2;P2;SDS_P1;SDS_P2;PMS_P1;PMS_P2;Temp;Humidity;BMP_temperature;BMP_pressure;BME280_temperature;BME280_humidity;BME280_pressure;Samples;Min_cycle;Max_cycle;Signal;HPM_P1;HPM_P2
2023/08/26 00:04:46;;;;;;;12.60;6.80;;;;;;;24.34;61.99;99797.58;106654;1307;23769;-84
2023/08/26 00:19:56;;;;;;;9.10;7.00;;;;;;;25.36;59.82;99805.52;110437;1253;548007;-84
2023/08/26 00:24:01;;;;;;;9.50;7.00;;;;;;;25.11;59.90;99808.64;107531;1250;23639;-88
2023/08/26 00:33:06;;;;;;;;;;;;;;;;;;;;;
2023/08/26 00:42:30;;;;;;;;;;;;;;;;;;;;;
2023/08/26 00:46:29;;;;;;;;;;;;;;;;;;;;;
2023/08/26 00:51:16;;;;;;;;;;;;;;;;;;;;;
2023/08/26 01:10:04;;;;;;;;;;;;;;;;;;;;;
2023/08/26 01:19:25;;;;;;;;;;;;;;;;;;;;;
2023/08/26 01:28:08;;;;;;;;;;;;;;;;;;;;;
2023/08/26 01:33:08;;;;;;;;;;;;;;;;;;;;;
2023/08/26 01:41:16;;;;;;;;;;;;;;;;;;;;;
2023/08/26 01:49:28;;;;;;;9.00;5.90;;;;;;;23.57;61.71;99815.31;107755;1293;545125;-86
2023/08/26 01:53:16;;;;;;;6.40;5.40;;;;;;;23.53;62.00;99819.86;110029;1267;21970;-85
2023/08/26 01:57:34;;;;;;;;;;;;;;;;;;;;;
2023/08/26 02:30:20;;;;;;;8.40;5.60;;;;;;;24.08;60.11;99829.55;110659;1255;548290;-87
2023/08/26 02:34:30;;;;;;;;;;;;;;;;;;;;;
2023/08/26 02:38:25;;;;;;;6.90;5.00;;;;;;;23.55;60.30;99844.88;110983;1258;23708;-87
2023/08/26 02:50:28;;;;;;;6.90;5.60;;;;;;;22.93;62.33;99850.47;109233;1274;23050;-85
2023/08/26 02:53:52;;;;;;;11.60;6.50;;;;;;;22.86;62.32;99851.83;108705;1280;22090;-86
2023/08/26 02:56:43;;;;;;;8.20;5.00;;;;;;;22.82;62.59;99855.96;108572;1280;22009;-86
2023/08/26 03:01:00;;;;;;;;;;;;;;;;;;;;;
2023/08/26 03:09:25;;;;;;;10.10;6.20;;;;;;;22.52;63.07;99849.20;109727;1272;21980;-85
2023/08/26 03:13:10;;;;;;;;;;;;;;;;;;;;;
2023/08/26 03:36:43;;;;;;;7.80;6.60;;;;;;;23.03;60.94;99842.56;102888;1281;22046;-85
2023/08/26 03:40:22;;;;;;;10.20;6.50;;;;;;;22.74;61.74;99851.76;109248;1274;23031;-84
2023/08/26 03:44:12;;;;;;;16.00;13.40;;;;;;;22.45;62.68;99852.04;109224;1274;21958;-85
2023/08/26 03:52:11;;;;;;;;;;;;;;;;;;;;;
2023/08/26 03:55:30;;;;;;;11.00;9.90;;;;;;;21.72;64.65;99830.02;107491;1297;22077;-87
2023/08/26 04:01:49;;;;;;;;;;;;;;;21.55;65.46;99823.38;107653;1297;24421;-85
2023/08/26 04:05:44;;;;;;;;;;;;;;;;;;;;;
2023/08/26 04:11:17;;;;;;;10.50;9.40;;;;;;;21.70;65.93;99818.77;107681;1295;548569;-85
2023/08/26 04:15:32;;;;;;;11.40;9.80;;;;;;;21.52;66.20;99827.53;108573;1289;22009;-86
2023/08/26 04:21:59;;;;;;;13.50;9.30;;;;;;;21.37;67.20;99842.71;102578;1304;5036022;-83
2023/08/26 04:25:51;;;;;;;10.10;8.80;;;;;;;21.38;67.19;99841.42;106948;1304;22869;-83
2023/08/26 04:28:44;;;;;;;16.80;11.00;;;;;;;21.39;67.34;99847.13;106311;1307;22024;-84
2023/08/26 04:34:51;;;;;;;10.60;9.60;;;;;;;21.46;67.47;99854.13;106054;1312;23654;-86
2023/08/26 04:37:47;;;;;;;13.70;9.50;;;;;;;21.52;67.53;99852.73;105755;1312;23810;-83
2023/08/26 04:40:52;;;;;;;11.60;10.00;;;;;;;21.56;67.68;99850.38;105783;1312;22023;-85
2023/08/26 04:43:58;;;;;;;13.80;11.00;;;;;;;21.57;67.46;99850.10;105850;1312;23600;-82
2023/08/26 04:46:57;;;;;;;;;;;;;;;;;;;;;
2023/08/26 04:49:38;;;;;;;24.60;22.10;;;;;;;21.60;67.56;99854.40;106961;1299;22015;-83
2023/08/26 04:53:03;;;;;;;36.50;29.50;;;;;;;21.59;67.34;99853.10;107684;1296;22008;-84
2023/08/26 04:56:24;;;;;;;;;;;;;;;;;;;;;
2023/08/26 04:59:34;;;;;;;25.00;20.20;;;;;;;21.57;67.44;99856.52;108124;1290;22007;-85
2023/08/26 05:02:37;;;;;;;17.20;15.50;;;;;;;21.58;67.65;99857.63;107657;1297;22073;-83
2023/08/26 05:05:50;;;;;;;15.40;13.80;;;;;;;21.65;67.80;99868.16;108257;1285;21996;-84
2023/08/26 05:08:30;;;;;;;16.00;11.30;;;;;;;21.66;67.70;99873.74;108827;1281;22462;-83
2023/08/26 05:11:09;;;;;;;12.20;10.90;;;;;;;21.69;67.65;99876.45;108716;1280;23763;-79
2023/08/26 05:13:54;;;;;;;11.60;10.50;;;;;;;21.75;67.69;99874.78;108590;1282;23630;-78
2023/08/26 05:16:30;;;;;;;10.40;9.30;;;;;;;21.82;67.34;99871.02;108478;1282;22394;-79
2023/08/26 05:19:46;;;;;;;12.20;9.30;;;;;;;21.88;67.32;99867.65;108485;1279;23071;-78
2023/08/26 05:22:35;;;;;;;12.20;10.30;;;;;;;21.92;67.02;99868.15;108640;1283;22056;-79
2023/08/26 05:26:00;;;;;;;11.80;9.90;;;;;;;22.00;66.94;99867.27;108578;1283;22037;-79
2023/08/26 05:29:24;;;;;;;15.10;13.40;;;;;;;22.09;66.69;99861.95;108594;1283;22010;-79
2023/08/26 05:32:22;;;;;;;14.40;13.00;;;;;;;22.18;66.25;99862.29;108304;1283;22091;-78
2023/08/26 05:35:40;;;;;;;16.20;14.60;;;;;;;22.28;66.22;99864.41;108583;1278;22204;-79
2023/08/26 05:38:22;;;;;;;18.80;15.30;;;;;;;22.44;65.92;99868.60;109152;1273;22061;-79
2023/08/26 05:41:14;;;;;;;13.50;12.10;;;;;;;22.56;65.81;99866.44;109385;1273;21939;-80
2023/08/26 05:44:00;;;;;;;16.20;12.20;;;;;;;22.71;65.57;99865.15;109119;1273;23340;-79
2023/08/26 05:46:59;;;;;;;12.60;10.80;;;;;;;22.88;65.25;99869.69;109175;1272;22000;-81
2023/08/26 05:49:50;;;;;;;15.20;10.10;;;;;;;23.04;64.77;99871.02;109298;1268;21960;-80
2023/08/26 05:52:51;;;;;;;;;;;;;;;;;;;;;
2023/08/26 05:55:47;;;;;;;12.50;9.20;;;;;;;23.40;64.17;99868.38;110508;1261;21951;-80
2023/08/26 05:58:29;;;;;;;12.90;8.40;;;;;;;23.65;63.81;99860.95;110251;1261;23589;-81
2023/08/26 06:01:13;;;;;;;13.50;8.90;;;;;;;23.90;63.05;99860.36;110076;1266;23039;-80
2023/08/26 06:03:56;;;;;;;10.50;7.30;;;;;;;24.12;62.37;99860.98;109779;1266;22251;-79
2023/08/26 06:06:38;;;;;;;11.90;6.90;;;;;;;24.38;62.03;99859.34;109998;1266;22051;-81
2023/08/26 06:10:43;;;;;;;12.10;8.10;;;;;;;24.74;61.27;99861.13;109642;1272;21975;-83
2023/08/26 06:14:07;;;;;;;6.20;5.50;;;;;;;25.27;60.59;99872.13;108822;1282;22995;-86
2023/08/26 06:18:27;;;;;;;8.40;6.00;;;;;;;25.93;59.24;99879.93;108595;1285;22056;-85
2023/08/26 06:21:56;;;;;;;10.70;6.00;;;;;;;26.57;57.90;99877.73;108651;1282;21994;-80
2023/08/26 06:25:29;;;;;;;8.50;4.50;;;;;;;27.21;55.85;99880.02;108637;1282;21998;-80
2023/08/26 06:29:50;;;;;;;6.70;4.50;;;;;;;27.81;53.65;99882.08;108547;1284;22000;-78
2023/08/26 06:33:09;;;;;;;;;;;;;;;;;;;;;
2023/08/26 06:37:34;;;;;;;5.80;4.00;;;;;;;27.94;51.10;99900.51;108536;1281;22000;-80
2023/08/26 06:42:00;;;;;;;9.70;3.90;;;;;;;28.08;51.51;99905.70;108587;1281;22772;-80
2023/08/26 06:45:56;;;;;;;;;;;;;;;;;;;;;
2023/08/26 06:48:45;;;;;;;11.40;3.50;;;;;;;28.19;48.59;99908.15;108033;1285;22044;-79
2023/08/26 06:52:29;;;;;;;;;;;;;;;;;;;;;
2023/08/26 06:55:23;;;;;;;4.50;2.50;;;;;;;28.77;48.86;99924.80;108014;1289;23168;-80
2023/08/26 06:59:07;;;;;;;4.40;3.30;;;;;;;29.14;47.62;99922.42;108142;1289;21994;-80
2023/08/26 07:06:01;;;;;;;5.50;3.20;;;;;;;29.34;45.22;99926.44;107524;1296;22038;-82
2023/08/26 07:08:46;;;;;;;5.90;3.30;;;;;;;29.37;45.51;99928.41;107220;1299;23081;-82
2023/08/26 07:11:44;;;;;;;4.80;2.90;;;;;;;29.37;44.93;99937.89;107218;1297;22030;-79
2023/08/26 07:15:08;;;;;;;3.60;2.70;;;;;;;29.19;44.91;99943.77;107274;1300;22025;-79
2023/08/26 07:17:41;;;;;;;4.50;2.10;;;;;;;29.10;45.20;99944.64;106614;1304;22023;-82
2023/08/26 07:20:25;;;;;;;8.40;3.00;;;;;;;29.08;45.28;99946.06;107015;1303;23856;-80
2023/08/26 07:23:09;;;;;;;7.00;3.10;;;;;;;29.00;45.12;99949.25;107123;1299;22022;-82
2023/08/26 07:25:50;;;;;;;4.70;2.70;;;;;;;28.91;44.42;99953.04;107628;1290;22097;-80
2023/08/26 07:29:15;;;;;;;6.80;2.30;;;;;;;28.70;44.19;99951.98;107778;1292;23043;-81
2023/08/26 07:32:17;;;;;;;5.00;2.50;;;;;;;28.59;44.94;99946.16;107611;1291;23669;-80
2023/08/26 07:35:02;;;;;;;4.10;2.30;;;;;;;28.67;44.92;99957.75;107647;1291;22782;-81
2023/08/26 07:37:58;;;;;;;10.00;3.00;;;;;;;28.64;44.70;99957.34;107202;1297;22020;-81
2023/08/26 07:40:40;;;;;;;7.20;2.40;;;;;;;28.65;45.04;99968.02;107964;1289;22897;-80
2023/08/26 07:44:03;;;;;;;8.40;2.90;;;;;;;28.76;45.38;99970.27;107723;1296;22363;-81
2023/08/26 07:47:15;;;;;;;3.90;2.50;;;;;;;28.88;45.18;99973.25;107612;1295;22012;-78
2023/08/26 07:49:55;;;;;;;6.30;2.80;;;;;;;28.97;44.72;99973.20;107618;1296;23032;-80
2023/08/26 07:52:53;;;;;;;5.20;2.90;;;;;;;29.02;44.45;99974.58;107788;1291;22131;-81
2023/08/26 07:55:46;;;;;;;7.90;3.00;;;;;;;28.96;44.34;99980.64;108176;1284;23760;-78
2023/08/26 07:58:45;;;;;;;10.70;3.00;;;;;;;28.84;44.38;99980.89;108518;1284;21986;-78
2023/08/26 08:02:00;;;;;;;8.80;3.20;;;;;;;28.68;45.02;99979.92;108377;1286;22095;-80
2023/08/26 08:05:03;;;;;;;10.30;3.60;;;;;;;28.57;45.55;99976.61;108472;1286;22043;-80
2023/08/26 08:08:03;;;;;;;7.00;2.70;;;;;;;28.33;46.62;99969.39;108845;1273;24332;-81
2023/08/26 08:10:34;;;;;;;8.10;3.40;;;;;;;28.29;46.76;99976.50;109499;1273;21974;-80
2023/08/26 08:13:34;;;;;;;5.20;3.20;;;;;;;28.14;46.90;99971.48;109513;1272;23643;-78
2023/08/26 08:16:12;;;;;;;4.80;3.10;;;;;;;28.01;47.07;99972.10;109899;1268;21990;-78
2023/08/26 08:19:27;;;;;;;;;;;;;;;;;;;;;
2023/08/26 08:23:02;;;;;;;;;;;;;;;;;;;;;
2023/08/26 08:26:51;;;;;;;12.60;3.60;;;;;;;27.47;48.45;99975.10;108761;1280;22916;-79
2023/08/26 08:30:21;;;;;;;5.60;3.10;;;;;;;27.39;48.86;99975.02;108547;1280;21991;-80
2023/08/26 08:34:09;;;;;;;7.10;3.70;;;;;;;27.23;49.34;99968.58;108129;1290;22870;-83
2023/08/26 08:41:42;;;;;;;8.10;3.80;;;;;;;27.23;50.30;99961.22;108335;1285;22009;-81
2023/08/26 08:46:03;;;;;;;;;;;;;;;;;;;;;
2023/08/26 08:49:38;;;;;;;11.40;3.30;;;;;;;27.37;50.54;99962.04;108230;1287;23763;-81
2023/08/26 08:53:29;;;;;;;10.50;3.00;;;;;;;27.49;50.23;99964.20;108386;1286;23056;-77
2023/08/26 08:56:52;;;;;;;;;;;;;;;;;;;;;
2023/08/26 09:00:34;;;;;;;;;;;;;;;;;;;;;
2023/08/26 09:03:53;;;;;;;;;;;;;;;;;;;;;
2023/08/26 09:06:34;;;;;;;8.50;3.10;;;;;;;28.72;48.32;99971.80;108845;1281;22177;-79
2023/08/26 09:10:05;;;;;;;9.00;2.90;;;;;;;29.32;47.36;99960.11;108025;1290;23062;-80
2023/08/26 09:13:13;;;;;;;;;;;;;;;;;;;;;
2023/08/26 09:15:46;;;;;;;6.80;3.00;;;;;;;30.37;44.71;99961.48;108060;1288;22498;-79
2023/08/26 09:22:19;;;;;;;;;;;;;;;;;;;;;
2023/08/26 09:26:05;;;;;;;3.60;2.70;;;;;;;31.29;42.33;99963.54;108531;1287;21996;-80
2023/08/26 09:29:06;;;;;;;2.90;2.50;;;;;;;31.53;41.61;99962.01;108474;1285;22066;-80
2023/08/26 09:32:09;;;;;;;7.00;3.10;;;;;;;31.64;41.14;99955.48;108512;1283;22003;-80
2023/08/26 09:35:50;;;;;;;8.40;2.90;;;;;;;31.67;40.87;99954.90;108584;1281;22003;-80
2023/08/26 09:40:11;;;;;;;16.30;3.00;;;;;;;31.53;40.32;99959.69;108513;1281;22007;-81
2023/08/26 09:45:14;;;;;;;;;;;;;;;;;;;;;
2023/08/26 09:48:18;;;;;;;;;;;;;;;;;;;;;
2023/08/26 09:51:52;;;;;;;9.60;4.00;;;;;;;30.99;41.13;99948.84;107533;1297;23627;-79
2023/08/26 09:55:15;;;;;;;6.70;3.10;;;;;;;31.25;40.75;99940.13;107190;1300;23175;-81
2023/08/26 10:02:42;;;;;;;;;;;;;;;;;;;;;
2023/08/26 10:05:47;;;;;;;;;;;;;;;;;;;;;
2023/08/26 10:09:53;;;;;;;4.90;2.80;;;;;;;32.27;39.05;99939.10;108028;1289;22471;-80
2023/08/26 10:13:23;;;;;;;4.10;2.80;;;;;;;32.37;38.62;99929.44;107540;1295;22009;-79
2023/08/26 10:16:11;;;;;;;4.00;3.10;;;;;;;32.55;38.59;99927.79;106385;1304;23059;-82
2023/08/26 10:20:14;;;;;;;;;;;;;;;;;;;;;
2023/08/26 10:23:56;;;;;;;14.00;4.30;;;;;;;32.36;38.02;99906.92;107465;1296;23797;-83
2023/08/26 10:26:47;;;;;;;6.90;4.60;;;;;;;32.16;37.83;99893.59;106748;1296;22064;-81
2023/08/26 10:30:17;;;;;;;6.50;3.70;;;;;;;32.00;38.83;99874.36;107664;1295;22017;-80
2023/08/26 10:33:28;;;;;;;9.10;4.30;;;;;;;32.13;39.03;99870.70;107113;1300;22943;-81
2023/08/26 10:36:34;;;;;;;8.90;4.90;;;;;;;32.39;38.74;99867.85;107034;1300;23657;-81
2023/08/26 10:40:15;;;;;;;;;;;;;;;;;;;;;
2023/08/26 10:46:55;;;;;;;4.90;3.00;;;;;;;32.63;38.17;99863.60;104432;1310;1939461;-80
2023/08/26 10:50:01;;;;;;;;;;;;;;;;;;;;;
2023/08/26 10:52:45;;;;;;;6.90;3.50;;;;;;;32.70;37.63;99856.60;106750;1301;22361;-80
2023/08/26 10:56:44;;;;;;;;;;;;;;;;;;;;;
2023/08/26 10:59:55;;;;;;;;;;;;;;;;;;;;;
2023/08/26 11:02:53;;;;;;;7.30;4.50;;;;;;;31.75;39.34;99862.92;107795;1288;22000;-80
2023/08/26 11:06:19;;;;;;;7.50;4.00;;;;;;;31.59;39.46;99865.91;108310;1289;23055;-80
2023/08/26 11:13:18;;;;;;;3.90;3.50;;;;;;;31.12;40.56;99860.98;108552;1284;24772;-81
2023/08/26 11:16:45;;;;;;;4.40;3.40;;;;;;;30.99;40.68;99866.63;108723;1284;22626;-81
2023/08/26 11:20:18;;;;;;;4.50;3.70;;;;;;;30.81;41.50;99874.46;108857;1279;22200;-80
2023/08/26 11:24:12;;;;;;;5.90;4.20;;;;;;;30.80;41.59;99879.27;108549;1282;23699;-81
2023/08/26 11:27:59;;;;;;;11.80;4.40;;;;;;;30.69;41.92;99893.36;108322;1289;22002;-82
2023/08/26 11:31:32;;;;;;;11.00;4.10;;;;;;;30.63;42.33;99901.95;107931;1283;22303;-83
2023/08/26 11:34:40;;;;;;;;;;;;;;;;;;;;;
2023/08/26 11:54:00;;;;;;;9.50;3.50;;;;;;;31.06;41.32;99943.09;108035;1286;548656;-79
2023/08/26 11:58:26;;;;;;;8.20;3.00;;;;;;;30.60;41.76;99955.02;100860;1286;21999;-79
2023/08/26 12:02:45;;;;;;;5.70;3.40;;;;;;;30.00;42.45;99954.96;108333;1277;23786;-81
2023/08/26 12:11:38;;;;;;;;;;;;;;;;;;;;;
2023/08/26 12:16:09;;;;;;;4.80;3.10;;;;;;;28.98;44.60;99959.33;109042;1277;21991;-79
2023/08/26 12:20:21;;;;;;;6.60;3.30;;;;;;;28.65;45.37;99963.88;109047;1275;22758;-79
2023/08/26 12:24:07;;;;;;;5.80;3.70;;;;;;;28.44;45.95;99974.17;106684;1281;2896780;-79
2023/08/26 12:31:34;;;;;;;4.80;3.90;;;;;;;28.37;46.89;99982.96;107564;1298;22018;-78
2023/08/26 12:34:40;;;;;;;;;;;;;;;;;;;;;
2023/08/26 12:37:20;;;;;;;;;;;;;;;28.47;47.32;99972.40;106774;1305;22408;-78
2023/08/26 12:44:08;;;;;;;18.40;3.70;;;;;;;28.58;46.67;99976.11;106446;1300;23676;-80
2023/08/26 12:47:26;;;;;;;5.00;3.40;;;;;;;28.57;46.78;99972.28;106695;1301;22185;-79
2023/08/26 12:50:21;;;;;;;6.20;2.60;;;;;;;28.56;46.59;99972.06;106855;1301;23104;-79
2023/08/26 12:53:32;;;;;;;3.70;3.30;;;;;;;28.52;46.77;99970.45;106943;1304;22053;-83
2023/08/26 12:56:09;;;;;;;5.40;3.50;;;;;;;28.57;47.24;99970.70;107290;1300;22025;-82
2023/08/26 12:58:42;;;;;;;5.00;2.60;;;;;;;28.65;47.15;99962.27;107152;1302;22106;-82
2023/08/26 13:01:57;;;;;;;5.90;2.60;;;;;;;28.80;46.56;99969.21;107070;1302;22024;-83
2023/08/26 13:04:24;;;;;;;2.60;1.50;;;;;;;28.81;45.22;99973.94;107233;1302;22039;-84
2023/08/26 13:07:01;;;;;;;;;;;;;;;;;;;;;
2023/08/26 13:09:41;;;;;;;2.70;1.80;;;;;;;28.92;43.54;99979.18;108451;1290;22006;-81
2023/08/26 13:12:13;;;;;;;3.00;2.10;;;;;;;28.99;43.01;99975.37;108388;1290;23634;-80
2023/08/26 13:14:45;;;;;;;8.40;2.00;;;;;;;29.09;42.72;99965.67;108809;1279;23336;-81
2023/08/26 13:17:43;;;;;;;;;;;;;;;;;;;;;
2023/08/26 13:20:18;;;;;;;4.30;1.80;;;;;;;29.34;41.95;99969.78;109252;1279;21987;-78
2023/08/26 13:24:02;;;;;;;;;;;;;;;;;;;;;
2023/08/26 13:31:50;;;;;;;6.30;1.50;;;;;;;29.32;40.86;99959.14;109238;1279;21989;-80
2023/08/26 13:36:19;;;;;;;3.30;2.80;;;;;;;29.32;40.55;99954.67;108366;1293;23102;-81
2023/08/26 13:39:32;;;;;;;3.60;1.70;;;;;;;29.32;40.54;99944.98;107389;1302;23654;-81
2023/08/26 13:42:46;;;;;;;2.00;1.30;;;;;;;29.31;40.32;99951.60;107586;1300;22021;-81
2023/08/26 13:45:33;;;;;;;5.10;1.30;;;;;;;29.29;40.17;99955.05;107525;1300;24539;-81
2023/08/26 13:49:00;;;;;;;;;;;;;;;;;;;;;
2023/08/26 13:52:04;;;;;;;1.90;1.40;;;;;;;29.26;39.88;99953.08;106877;1301;22124;-80
2023/08/26 13:55:43;;;;;;;2.40;1.50;;;;;;;29.23;39.95;99945.96;107565;1298;22980;-82
2023/08/26 13:59:05;;;;;;;;;;;;;;;;;;;;;
2023/08/26 14:02:25;;;;;;;;;;;;;;;;;;;;;
2023/08/26 14:33:43;;;;;;;;;;;;;;;;;;;;;
2023/08/26 14:41:29;;;;;;;;;;;;;;;;;;;;;
2023/08/26 14:50:24;;;;;;;;;;;;;;;;;;;;;
2023/08/26 14:54:49;;;;;;;5.10;2.40;;;;;;;29.59;38.15;99909.86;109594;1275;21997;-82
2023/08/26 14:58:25;;;;;;;2.80;1.80;;;;;;;29.24;38.82;99909.75;109660;1275;23758;-82
2023/08/26 15:10:26;;;;;;;1.90;1.80;;;;;;;28.84;39.00;99903.94;107618;1296;22029;-86
2023/08/26 15:14:16;;;;;;;3.60;2.00;;;;;;;28.81;39.13;99908.17;107577;1300;22021;-81
2023/08/26 15:17:21;;;;;;;6.30;1.80;;;;;;;28.83;39.08;99908.92;107329;1302;23660;-79
2023/08/26 15:21:47;;;;;;;;;;;;;;;;;;;;;
2023/08/26 15:24:27;;;;;;;;;;;;;;;28.81;38.84;99904.65;107729;1297;22010;-82
2023/08/26 15:27:06;;;;;;;5.90;1.70;;;;;;;28.75;38.97;99900.20;107788;1298;22005;-80
2023/08/26 15:29:45;;;;;;;5.20;1.90;;;;;;;28.78;39.02;99894.58;107591;1298;22022;-85
2023/08/26 15:32:25;;;;;;;5.40;2.20;;;;;;;28.76;39.08;99896.41;107627;1299;22019;-79
2023/08/26 15:34:58;;;;;;;2.20;1.70;;;;;;;28.79;39.19;99904.00;107566;1300;22110;-79
2023/08/26 15:37:58;;;;;;;;;;;;;;;;;;;;;
2023/08/26 15:40:34;;;;;;;;;;;;;;;28.84;39.54;99911.83;107646;1299;22015;-79
2023/08/26 15:43:18;;;;;;;4.40;1.80;;;;;;;28.85;39.46;99917.46;108314;1282;22495;-81
2023/08/26 15:45:59;;;;;;;3.50;1.90;;;;;;;28.85;39.67;99921.19;108952;1276;22036;-79
2023/08/26 15:48:43;;;;;;;2.00;1.40;;;;;;;28.85;39.55;99920.06;109217;1279;21968;-80
2023/08/26 15:51:45;;;;;;;3.40;2.00;;;;;;;28.82;39.43;99921.52;110305;1266;21986;-80
2023/08/26 15:54:28;;;;;;;2.40;1.40;;;;;;;28.78;39.61;99924.89;110173;1267;22040;-79
2023/08/26 15:57:18;;;;;;;2.30;1.60;;;;;;;28.74;39.62;99927.86;110236;1267;21994;-80
2023/08/26 16:00:00;;;;;;;2.90;1.80;;;;;;;28.71;39.91;99928.81;109875;1267;22972;-79
2023/08/26 16:02:41;;;;;;;2.50;1.70;;;;;;;28.70;40.01;99926.57;110271;1265;21972;-80
2023/08/26 16:05:41;;;;;;;8.50;2.70;;;;;;;28.74;40.20;99928.96;110413;1265;21982;-81
2023/08/26 16:08:23;;;;;;;5.00;2.00;;;;;;;28.71;40.34;99932.98;110472;1266;22328;-83
2023/08/26 16:11:09;;;;;;;4.20;1.80;;;;;;;28.71;40.43;99928.04;110507;1266;22167;-82
2023/08/26 16:14:24;;;;;;;2.60;1.60;;;;;;;28.67;40.44;99920.33;110587;1265;23032;-81
2023/08/26 16:17:12;;;;;;;2.70;1.70;;;;;;;28.62;40.45;99915.02;111011;1264;21998;-83
2023/08/26 16:19:50;;;;;;;5.70;2.20;;;;;;;28.59;40.71;99916.29;109785;1271;21978;-80
2023/08/26 16:22:28;;;;;;;2.60;1.90;;;;;;;28.57;40.72;99922.52;109812;1271;21994;-81
2023/08/26 16:25:21;;;;;;;2.70;1.70;;;;;;;28.57;40.73;99923.33;109700;1272;21991;-79
2023/08/26 16:28:24;;;;;;;3.90;2.30;;;;;;;28.54;40.72;99922.59;109538;1270;22887;-78
2023/08/26 16:31:11;;;;;;;3.00;2.10;;;;;;;28.51;40.63;99927.27;109688;1270;22006;-79
2023/08/26 16:34:13;;;;;;;2.50;2.10;;;;;;;28.46;40.73;99932.53;110386;1270;23701;-88
2023/08/26 16:37:03;;;;;;;2.00;1.60;;;;;;;28.41;40.90;99930.52;109673;1267;22935;-80
2023/08/26 16:39:49;;;;;;;4.70;2.10;;;;;;;28.42;41.15;99930.11;110194;1267;21992;-77
2023/08/26 16:42:44;;;;;;;2.10;1.80;;;;;;;28.36;41.27;99923.14;110187;1261;22141;-78
2023/08/26 16:45:49;;;;;;;4.10;2.30;;;;;;;28.35;41.26;99935.80;110703;1261;21995;-80
2023/08/26 16:48:36;;;;;;;4.90;2.20;;;;;;;28.29;41.63;99930.23;110654;1261;21964;-82
2023/08/26 16:51:18;;;;;;;12.20;2.90;;;;;;;28.26;41.90;99932.33;110776;1262;21963;-80
2023/08/26 16:53:56;;;;;;;;;;;;;;;28.26;42.06;99935.91;110512;1261;21964;-79
2023/08/26 16:56:51;;;;;;;3.90;2.00;;;;;;;28.15;42.40;99938.68;111322;1257;21973;-76
2023/08/26 16:59:48;;;;;;;5.80;2.50;;;;;;;28.10;42.50;99931.38;110519;1264;21983;-74
2023/08/26 17:02:46;;;;;;;6.10;2.40;;;;;;;28.06;42.67;99932.58;110443;1263;21980;-78
2023/08/26 17:05:54;;;;;;;5.00;2.30;;;;;;;28.02;43.00;99928.80;110617;1260;22368;-76
2023/08/26 17:09:26;;;;;;;;;;;;;;;;;;;;;
2023/08/26 17:12:56;;;;;;;5.00;2.30;;;;;;;27.87;43.12;99932.81;110692;1263;21969;-77
2023/08/26 17:16:04;;;;;;;2.70;1.80;;;;;;;27.79;43.39;99945.33;109970;1269;21985;-76
2023/08/26 17:19:11;;;;;;;5.90;2.40;;;;;;;27.71;43.75;99954.90;109869;1269;21982;-76
2023/08/26 17:21:55;;;;;;;7.00;2.40;;;;;;;27.57;44.29;99958.50;109742;1269;22841;-75
2023/08/26 17:24:48;;;;;;;3.60;2.70;;;;;;;27.40;44.75;99960.98;109772;1269;22761;-79
2023/08/26 17:27:47;;;;;;;12.60;3.30;;;;;;;27.22;45.47;99964.96;109891;1269;22090;-79
2023/08/26 17:31:19;;;;;;;;;;;;;;;;;;;;;
2023/08/26 17:34:16;;;;;;;8.10;3.00;;;;;;;26.92;46.69;99979.97;109496;1271;22024;-77
2023/08/26 17:37:03;;;;;;;4.90;2.90;;;;;;;26.80;46.90;99978.84;109478;1268;21998;-76
2023/08/26 17:40:00;;;;;;;6.90;2.70;;;;;;;26.65;47.33;99973.16;110097;1268;21976;-77
2023/08/26 17:42:48;;;;;;;7.00;2.70;;;;;;;26.52;47.67;99975.64;110002;1268;23781;-76
2023/08/26 17:45:33;;;;;;;5.40;2.80;;;;;;;26.42;47.98;99973.05;110039;1268;22091;-77
2023/08/26 17:48:24;;;;;;;9.40;3.40;;;;;;;26.26;48.27;99978.86;110002;1269;22002;-77
2023/08/26 17:51:01;;;;;;;5.40;2.80;;;;;;;26.14;48.72;99981.55;109879;1264;21993;-77
2023/08/26 17:54:16;;;;;;;8.20;3.30;;;;;;;26.04;49.20;99976.43;110792;1257;21979;-76
2023/08/26 17:57:04;;;;;;;6.00;4.00;;;;;;;25.91;49.48;99967.56;110941;1258;22341;-75
2023/08/26 18:00:23;;;;;;;4.90;3.10;;;;;;;25.81;49.85;99971.58;110881;1257;24173;-75
2023/08/26 18:03:18;;;;;;;8.00;3.20;;;;;;;25.69;50.13;99969.54;110719;1257;21949;-76
2023/08/26 18:06:09;;;;;;;8.00;2.80;;;;;;;25.61;50.27;99965.75;110689;1258;21965;-76
2023/08/26 18:08:42;;;;;;;6.10;2.80;;;;;;;25.54;50.53;99964.87;110847;1257;21987;-76
2023/08/26 18:11:35;;;;;;;9.60;3.80;;;;;;;25.45;50.83;99964.02;110592;1262;23741;-76
2023/08/26 18:14:30;;;;;;;;;;;;;;;;;;;;;
2023/08/26 18:17:40;;;;;;;4.50;3.30;;;;;;;25.25;51.65;99955.12;110654;1262;23692;-78
2023/08/26 18:20:25;;;;;;;4.50;3.20;;;;;;;25.21;51.78;99967.98;110946;1262;23722;-78
2023/08/26 18:22:55;;;;;;;4.30;2.90;;;;;;;25.17;52.04;99970.54;110715;1262;23635;-77
2023/08/26 18:26:07;;;;;;;4.40;3.30;;;;;;;25.13;52.31;99977.70;110746;1262;22004;-78
2023/08/26 18:29:19;;;;;;;6.00;3.20;;;;;;;25.07;52.49;99980.67;110933;1257;21945;-78
2023/08/26 18:32:03;;;;;;;9.20;5.70;;;;;;;25.00;52.68;99975.90;110920;1257;21973;-78
2023/08/26 18:34:44;;;;;;;10.30;5.40;;;;;;;25.02;52.80;99983.32;110901;1257;22430;-76
2023/08/26 18:37:30;;;;;;;5.60;4.50;;;;;;;25.02;52.88;99990.69;111039;1257;21965;-79
2023/08/26 18:40:11;;;;;;;11.90;4.40;;;;;;;24.97;52.97;100000.25;111127;1257;21983;-77
2023/08/26 18:43:14;;;;;;;9.00;4.10;;;;;;;24.91;53.10;100012.05;110993;1257;23016;-76
2023/08/26 18:46:19;;;;;;;5.20;3.90;;;;;;;24.87;53.27;100012.85;110594;1263;21994;-76
2023/08/26 18:49:07;;;;;;;13.00;11.60;;;;;;;24.85;53.44;100005.54;110811;1264;21987;-77
2023/08/26 18:51:50;;;;;;;8.30;6.50;;;;;;;24.81;53.47;100002.41;109900;1268;22456;-80
2023/08/26 18:54:24;;;;;;;7.80;4.10;;;;;;;24.75;53.64;100000.85;110200;1268;22432;-78
2023/08/26 18:57:17;;;;;;;10.80;5.50;;;;;;;24.69;53.89;100003.23;110037;1267;22194;-77
2023/08/26 18:59:47;;;;;;;10.60;4.70;;;;;;;24.67;54.24;100008.65;109910;1268;22571;-79
2023/08/26 19:02:17;;;;;;;7.90;3.70;;;;;;;24.65;54.27;100009.95;109796;1267;22398;-79
2023/08/26 19:04:51;;;;;;;14.60;4.90;;;;;;;24.60;54.37;100000.48;110034;1264;21989;-79
2023/08/26 19:07:30;;;;;;;10.00;4.60;;;;;;;24.47;54.74;99984.58;110173;1254;23128;-79
2023/08/26 19:10:21;;;;;;;11.10;4.30;;;;;;;24.39;54.95;99988.41;110663;1257;24340;-78
2023/08/26 19:13:03;;;;;;;9.10;6.30;;;;;;;24.38;55.18;99997.35;110253;1251;22742;-79
2023/08/26 19:15:53;;;;;;;14.10;8.00;;;;;;;24.33;55.34;99994.98;110301;1265;21969;-81
2023/08/26 19:18:37;;;;;;;14.60;13.20;;;;;;;24.27;55.51;99987.30;110234;1265;22821;-79
2023/08/26 19:21:17;;;;;;;16.50;6.50;;;;;;;24.25;55.51;99985.73;110331;1264;22055;-78
2023/08/26 19:24:00;;;;;;;19.40;17.30;;;;;;;24.23;55.56;99984.52;110068;1262;21996;-78
2023/08/26 19:26:57;;;;;;;12.70;7.90;;;;;;;24.18;55.66;99983.90;110869;1263;22223;-78
2023/08/26 19:29:51;;;;;;;9.60;7.20;;;;;;;24.15;55.74;99979.04;110763;1262;21981;-80
2023/08/26 19:32:45;;;;;;;19.30;11.50;;;;;;;24.14;55.84;99980.55;111021;1256;23587;-80
2023/08/26 19:35:47;;;;;;;9.60;6.70;;;;;;;24.12;55.99;99988.98;110945;1262;22463;-79
2023/08/26 19:38:28;;;;;;;14.50;8.90;;;;;;;24.10;55.88;99994.80;110908;1262;23016;-79
2023/08/26 19:41:02;;;;;;;12.20;8.40;;;;;;;24.11;55.91;99999.67;111122;1262;23790;-81
2023/08/26 19:43:45;;;;;;;16.70;9.60;;;;;;;24.08;56.12;99998.02;109908;1267;22046;-79
2023/08/26 19:46:18;;;;;;;9.20;6.60;;;;;;;24.06;56.15;99991.88;109722;1273;22190;-80
2023/08/26 19:48:52;;;;;;;13.40;7.30;;;;;;;24.01;56.32;99993.60;109656;1273;21822;-80
2023/08/26 19:51:47;;;;;;;12.80;6.70;;;;;;;23.96;56.52;99993.42;109580;1273;22159;-79
2023/08/26 19:55:04;;;;;;;10.30;6.60;;;;;;;23.88;56.83;99994.61;110544;1265;22463;-80
2023/08/26 19:57:46;;;;;;;13.30;8.10;;;;;;;23.84;57.08;99997.44;110101;1268;21985;-78
2023/08/26 20:01:01;;;;;;;16.80;14.40;;;;;;;23.80;57.15;100001.52;110009;1268;23053;-79
2023/08/26 20:03:57;;;;;;;12.70;8.60;;;;;;;23.75;57.35;100001.33;110840;1258;21925;-79
2023/08/26 20:06:53;;;;;;;12.50;8.10;;;;;;;23.73;57.28;99996.38;110859;1257;21969;-79
2023/08/26 20:09:44;;;;;;;10.90;8.20;;;;;;;23.70;57.39;99989.38;111044;1257;23618;-79
2023/08/26 20:12:29;;;;;;;15.90;10.30;;;;;;;23.66;57.43;99986.55;110524;1262;22720;-78
2023/08/26 20:15:05;;;;;;;16.50;9.20;;;;;;;23.61;57.58;99985.64;109905;1268;22007;-80
2023/08/26 20:17:40;;;;;;;15.50;9.40;;;;;;;23.60;57.59;99979.85;109715;1271;22443;-80